Time;durP1;ratioP1;P1;durP2;ratioP2;P2;SDS_P1;SDS_P2;PMS_P1;PMS_P2;Temp;Humidity;BMP_temperature;BMP_pressure;BME280_temperature;BME280_humidity;BME280_pressure;Samples;Min_cycle;Max_cycle;Signal;HPM_P1;HPM_P2
2022/08/12 00:42:59;;;;;;;4.13;3.67;;;20.20;99.90;;;;;;5092610;28;20249;-80
2022/08/12 00:45:25;;;;;;;5.90;4.13;;;20.20;99.90;;;;;;5092616;28;20592;-81
2022/08/12 00:47:53;;;;;;;7.50;4.07;;;20.20;99.90;;;;;;5092995;28;20218;-80
2022/08/12 00:50:22;;;;;;;5.03;4.00;;;20.10;99.90;;;;;;5092363;28;20204;-81
2022/08/12 00:52:52;;;;;;;4.43;3.90;;;20.10;99.90;;;;;;5093072;28;20303;-80
2022/08/12 00:55:20;;;;;;;5.22;3.60;;;20.10;99.90;;;;;;5093782;28;20204;-80
2022/08/12 00:57:49;;;;;;;6.70;3.88;;;20.10;99.90;;;;;;5092149;28;20628;-80
2022/08/12 01:00:20;;;;;;;5.38;3.97;;;20.10;99.90;;;;;;5092872;28;20596;-80
2022/08/12 01:02:50;;;;;;;5.07;3.92;;;20.00;99.90;;;;;;5092722;28;20242;-80
2022/08/12 01:13:40;;;;;;;3.92;3.63;;;20.00;99.90;;;;;;5092540;28;20180;-79
2022/08/12 01:16:08;;;;;;;4.93;4.18;;;19.90;99.90;;;;;;5092419;28;20640;-80
2022/08/12 01:18:38;;;;;;;4.40;3.97;;;19.90;99.90;;;;;;5092240;28;20199;-80
2022/08/12 01:21:11;;;;;;;7.75;4.63;;;19.90;99.90;;;;;;5092353;28;20237;-81
2022/08/12 01:23:54;;;;;;;5.88;4.53;;;19.90;99.90;;;;;;5092069;28;20204;-81
2022/08/12 01:26:24;;;;;;;4.30;3.90;;;19.90;99.90;;;;;;5092337;28;20197;-81
2022/08/12 01:28:55;;;;;;;4.78;4.35;;;19.90;99.90;;;;;;5092584;28;20196;-82
2022/08/12 01:31:22;;;;;;;6.10;4.90;;;19.90;99.90;;;;;;5112352;28;20234;-79
2022/08/12 01:34:04;;;;;;;5.47;4.53;;;19.90;99.90;;;;;;5115979;28;20763;-79
2022/08/12 01:36:36;;;;;;;8.98;5.07;;;19.90;99.90;;;;;;5116257;28;20224;-80
2022/08/12 01:39:04;;;;;;;5.55;5.03;;;19.90;99.90;;;;;;5097069;28;20212;-77
2022/08/12 01:41:38;;;;;;;5.88;4.97;;;19.90;99.90;;;;;;5096015;28;20200;-80
2022/08/12 01:44:08;;;;;;;6.13;4.68;;;19.80;99.90;;;;;;5095905;28;20204;-79
2022/08/12 01:46:50;;;;;;;6.13;4.60;;;19.90;99.90;;;;;;5094765;28;20185;-80
2022/08/12 01:49:40;;;;;;;5.63;4.78;;;19.90;99.90;;;;;;5095795;28;20195;-81
2022/08/12 01:52:12;;;;;;;6.63;4.72;;;19.90;99.90;;;;;;5096176;28;20279;-81
2022/08/12 01:54:44;;;;;;;6.38;5.03;;;19.90;99.90;;;;;;5095727;28;20568;-81
2022/08/12 01:57:18;;;;;;;6.03;5.20;;;19.90;99.90;;;;;;5095843;28;20216;-81
2022/08/12 01:59:49;;;;;;;8.50;5.18;;;19.90;99.90;;;;;;5095074;28;20203;-80
2022/08/12 02:02:18;;;;;;;7.50;5.90;;;19.80;99.90;;;;;;5095778;28;20557;-81
2022/08/12 02:11:16;;;;;;;6.88;5.38;;;19.80;99.90;;;;;;5096126;28;20191;-81
2022/08/12 02:14:10;;;;;;;5.97;5.38;;;19.80;99.90;;;;;;5090990;28;20195;-81
2022/08/12 02:16:51;;;;;;;6.22;5.63;;;19.80;99.90;;;;;;5099638;28;20224;-81
2022/08/12 02:19:30;;;;;;;7.13;5.85;;;19.80;99.90;;;;;;5095172;28;20220;-81
2022/08/12 02:22:09;;;;;;;8.82;6.07;;;19.70;99.90;;;;;;5095118;28;20238;-80
2022/08/12 02:24:40;;;;;;;8.13;5.18;;;19.80;99.90;;;;;;5095316;28;20185;-80
2022/08/12 02:27:10;;;;;;;7.82;6.07;;;19.70;99.90;;;;;;5095416;28;20279;-80
2022/08/12 02:29:39;;;;;;;6.57;5.88;;;19.70;99.90;;;;;;5094064;28;20666;-80
2022/08/12 02:32:08;;;;;;;8.02;6.57;;;19.70;99.90;;;;;;5113887;28;20302;-80
2022/08/12 02:34:36;;;;;;;6.97;5.53;;;19.70;99.90;;;;;;5106473;28;20284;-81
2022/08/12 02:37:04;;;;;;;7.28;6.57;;;19.70;99.90;;;;;;5110714;28;20371;-80
2022/08/12 02:39:32;;;;;;;6.38;5.43;;;19.70;99.90;;;;;;5107750;28;20205;-80
2022/08/12 02:42:02;;;;;;;6.85;4.63;;;19.60;99.90;;;;;;5093593;28;20189;-78
2022/08/12 02:44:35;;;;;;;6.53;6.03;;;19.60;99.90;;;;;;5094452;28;20291;-78
2022/08/12 02:47:05;;;;;;;6.70;5.50;;;19.60;99.90;;;;;;5094952;28;20284;-78
2022/08/12 02:49:35;;;;;;;6.57;5.97;;;19.60;99.90;;;;;;5093913;28;20584;-78
2022/08/12 02:52:03;;;;;;;6.63;5.47;;;19.60;99.90;;;;;;5094173;28;20193;-77
2022/08/12 02:54:30;;;;;;;7.57;5.45;;;19.50;99.90;;;;;;5094865;28;20215;-79
2022/08/12 02:56:57;;;;;;;6.50;5.63;;;19.50;99.90;;;;;;5093568;28;20225;-80
2022/08/12 02:59:27;;;;;;;8.20;6.03;;;19.50;99.90;;;;;;5094417;28;20246;-78
2022/08/12 03:01:55;;;;;;;6.72;5.53;;;19.50;99.90;;;;;;5093811;28;20205;-78
2022/08/12 03:04:46;;;;;;;6.32;5.72;;;19.50;99.90;;;;;;5093188;28;20203;-79
2022/08/12 03:07:20;;;;;;;8.18;6.50;;;19.50;99.90;;;;;;5094916;28;20489;-79
2022/08/12 03:09:50;;;;;;;8.57;6.53;;;19.40;99.90;;;;;;5093558;28;20277;-78
2022/08/12 03:12:18;;;;;;;8.50;7.10;;;19.50;99.90;;;;;;5094140;28;20193;-79
2022/08/12 03:14:47;;;;;;;7.82;6.70;;;19.50;99.90;;;;;;5094338;28;20623;-79
2022/08/12 03:17:21;;;;;;;6.90;6.20;;;19.40;99.90;;;;;;5093110;28;20220;-79
2022/08/12 03:19:52;;;;;;;7.30;6.05;;;19.40;99.90;;;;;;5093769;28;20192;-80
2022/08/12 03:22:20;;;;;;;8.25;7.25;;;19.40;99.90;;;;;;5094279;28;20212;-81
2022/08/12 03:24:47;;;;;;;7.90;6.07;;;19.30;99.90;;;;;;5093081;28;20197;-80
2022/08/12 03:27:15;;;;;;;6.80;5.68;;;19.30;99.90;;;;;;5094332;28;20199;-80
2022/08/12 03:29:46;;;;;;;10.85;7.43;;;19.30;99.90;;;;;;5094012;28;20228;-80
2022/08/12 03:32:13;;;;;;;8.02;6.65;;;19.20;99.90;;;;;;5092826;28;20284;-80
2022/08/12 03:34:41;;;;;;;6.95;6.35;;;19.20;99.90;;;;;;5094246;28;20193;-80
2022/08/12 03:37:10;;;;;;;7.43;6.57;;;19.20;99.90;;;;;;5093730;28;20220;-79
2022/08/12 03:39:43;;;;;;;8.15;6.60;;;19.20;99.90;;;;;;5092922;28;20224;-78
2022/08/12 03:42:24;;;;;;;6.80;6.20;;;19.20;99.90;;;;;;5093340;28;20204;-80
2022/08/12 04:01:56;;;;;;;8.88;8.07;;;19.00;99.90;;;;;;5093610;28;20195;-78
2022/08/12 04:04:25;;;;;;;9.55;8.52;;;19.00;99.90;;;;;;5092967;28;20565;-77
2022/08/12 04:06:52;;;;;;;9.32;8.05;;;19.00;99.90;;;;;;5092198;28;20200;-77
2022/08/12 04:09:22;;;;;;;9.75;8.75;;;18.90;99.90;;;;;;5093446;28;20192;-78
2022/08/12 04:14:34;;;;;;;10.48;9.48;;;18.90;99.90;;;;;;5092546;28;20200;-78
2022/08/12 04:17:02;;;;;;;10.30;9.05;;;18.90;99.90;;;;;;5092851;28;20315;-79
2022/08/12 04:19:29;;;;;;;10.13;9.10;;;18.90;99.90;;;;;;5103290;28;20203;-79
2022/08/12 04:21:57;;;;;;;11.13;8.88;;;18.90;99.90;;;;;;5112736;28;20200;-80
2022/08/12 04:24:26;;;;;;;11.07;9.90;;;18.90;99.90;;;;;;5104344;28;20232;-79
2022/08/12 04:26:54;;;;;;;9.95;8.95;;;18.90;99.90;;;;;;5092561;28;20580;-78
2022/08/12 04:29:21;;;;;;;10.75;9.75;;;18.90;99.90;;;;;;5092043;28;20232;-77
2022/08/12 04:31:49;;;;;;;12.23;10.90;;;18.90;99.90;;;;;;5092000;28;20204;-79
2022/08/12 04:34:17;;;;;;;13.60;9.13;;;18.90;99.90;;;;;;5091787;28;20262;-79
2022/08/12 04:36:44;;;;;;;15.35;9.45;;;18.90;99.90;;;;;;5093293;28;20217;-80
2022/08/12 04:39:12;;;;;;;13.80;10.70;;;18.80;99.90;;;;;;5092276;28;20195;-79
2022/08/12 04:41:41;;;;;;;13.35;11.15;;;18.90;99.90;;;;;;5091527;28;20211;-80
2022/08/12 04:44:09;;;;;;;12.25;9.25;;;18.90;99.90;;;;;;5092839;28;20287;-78
2022/08/12 04:46:36;;;;;;;15.52;10.68;;;18.90;99.90;;;;;;5092587;28;20199;-79
2022/08/12 04:49:04;;;;;;;12.57;9.45;;;18.90;99.90;;;;;;5091397;28;20621;-80
2022/08/12 04:51:33;;;;;;;12.20;10.65;;;18.90;99.90;;;;;;5092380;28;20200;-79
2022/08/12 04:54:01;;;;;;;12.52;10.13;;;18.90;99.90;;;;;;5091992;28;20257;-78
2022/08/12 04:56:28;;;;;;;10.07;9.15;;;18.90;99.90;;;;;;5109176;28;20207;-81
2022/08/12 04:58:57;;;;;;;11.30;9.20;;;18.90;99.90;;;;;;5111996;28;20228;-79
2022/08/12 05:01:26;;;;;;;12.55;11.30;;;18.90;99.90;;;;;;5100259;28;20559;-78
2022/08/12 05:03:56;;;;;;;13.23;10.55;;;18.90;99.90;;;;;;5091020;28;20286;-78
2022/08/12 05:06:24;;;;;;;11.52;10.43;;;18.90;99.90;;;;;;5092513;28;20197;-77
2022/08/12 05:08:53;;;;;;;12.32;11.05;;;18.90;99.90;;;;;;5091890;28;20282;-78
2022/08/12 05:11:22;;;;;;;10.23;9.23;;;18.90;99.90;;;;;;5090854;28;20610;-79
2022/08/12 05:13:52;;;;;;;12.90;10.23;;;18.90;99.90;;;;;;5092184;28;20200;-78
2022/08/12 05:16:21;;;;;;;12.20;9.13;;;18.90;99.90;;;;;;5091794;28;20244;-79
2022/08/12 05:18:48;;;;;;;13.18;9.98;;;19.00;99.90;;;;;;5091962;28;20252;-78
2022/08/12 05:21:15;;;;;;;11.30;10.18;;;19.00;99.90;;;;;;5091585;28;20589;-78
2022/08/12 05:23:42;;;;;;;9.77;8.60;;;19.00;99.90;;;;;;5090847;28;20495;-78
2022/08/12 05:26:09;;;;;;;13.02;9.20;;;19.00;99.90;;;;;;5091543;28;20295;-79
2022/08/12 05:28:37;;;;;;;12.00;10.80;;;19.10;99.90;;;;;;5091994;28;20200;-77
2022/08/12 05:31:04;;;;;;;12.23;10.30;;;19.10;99.90;;;;;;5090672;28;20231;-78
2022/08/12 05:33:37;;;;;;;10.65;9.65;;;19.10;99.90;;;;;;5091053;28;20614;-79
2022/08/12 05:36:07;;;;;;;11.00;9.75;;;19.20;99.90;;;;;;5091514;28;20228;-79
2022/08/12 05:41:19;;;;;;;11.48;10.30;;;19.20;99.90;;;;;;5091906;28;20183;-76
2022/08/12 05:43:48;;;;;;;10.18;9.15;;;19.30;99.90;;;;;;5091355;28;20222;-78
2022/08/12 05:46:15;;;;;;;11.38;10.18;;;19.20;99.90;;;;;;5090871;28;20212;-79
2022/08/12 05:48:43;;;;;;;11.60;9.75;;;19.30;99.90;;;;;;5091306;28;20189;-79
2022/08/12 05:51:10;;;;;;;9.98;8.98;;;19.30;99.90;;;;;;5091501;28;20197;-81
2022/08/12 05:53:38;;;;;;;11.25;9.48;;;19.30;99.90;;;;;;5090408;28;20204;-80
2022/08/12 05:56:05;;;;;;;11.93;9.85;;;19.40;99.90;;;;;;5091553;28;20596;-80
2022/08/12 05:58:33;;;;;;;12.60;9.85;;;19.40;99.90;;;;;;5090902;28;20225;-80
2022/08/12 06:01:00;;;;;;;14.05;10.13;;;19.50;99.90;;;;;;5091168;28;20200;-80
2022/08/12 06:03:27;;;;;;;9.63;8.65;;;19.50;99.90;;;;;;5099453;28;20203;-80
2022/08/12 06:05:57;;;;;;;12.02;9.90;;;19.60;99.90;;;;;;5110428;28;20462;-80
2022/08/12 06:08:25;;;;;;;9.95;9.05;;;19.60;99.90;;;;;;5107896;28;20320;-79
2022/08/12 06:10:55;;;;;;;11.30;10.10;;;19.70;99.90;;;;;;5091517;28;20221;-78
2022/08/12 06:13:23;;;;;;;10.95;9.73;;;19.80;99.90;;;;;;5090685;28;20204;-80
2022/08/12 06:15:50;;;;;;;11.02;9.95;;;19.90;99.90;;;;;;5091394;28;20614;-77
2022/08/12 06:18:17;;;;;;;10.55;9.50;;;20.00;99.90;;;;;;5094787;28;20256;-78
2022/08/12 06:20:47;;;;;;;10.27;9.20;;;20.10;99.90;;;;;;5094279;28;20207;-78
2022/08/12 06:23:16;;;;;;;12.32;9.98;;;20.30;99.90;;;;;;5094816;28;20242;-79
2022/08/12 06:25:43;;;;;;;12.10;9.25;;;20.50;99.90;;;;;;5094924;28;20554;-77
2022/08/12 06:28:16;;;;;;;8.70;7.82;;;20.70;99.90;;;;;;5094441;28;20239;-77
2022/08/12 06:30:44;;;;;;;9.32;7.75;;;21.00;99.90;;;;;;5094566;28;20640;-77
2022/08/12 06:33:12;;;;;;;9.93;8.70;;;21.20;99.90;;;;;;5097775;27;20212;-78
2022/08/12 06:35:41;;;;;;;9.00;8.00;;;21.40;99.90;;;;;;5125192;27;20218;-79
2022/08/12 06:38:14;;;;;;;8.73;7.35;;;21.60;99.90;;;;;;5117541;27;20227;-77
2022/08/12 06:43:27;;;;;;;7.45;6.68;;;22.10;99.90;;;;;;5116954;27;20199;-79
2022/08/12 06:45:56;;;;;;;9.10;7.40;;;22.30;99.90;;;;;;5132364;27;20219;-78
2022/08/12 06:48:25;;;;;;;8.40;6.55;;;22.50;99.90;;;;;;5131848;27;20199;-79
2022/08/12 06:50:51;;;;;;;7.38;6.53;;;22.70;99.90;;;;;;5104932;27;20208;-79
2022/08/12 06:53:18;;;;;;;11.57;6.70;;;23.00;99.90;;;;;;5094195;28;20195;-78
2022/08/12 06:55:47;;;;;;;7.85;5.80;;;23.20;99.90;;;;;;5094148;28;20309;-78
2022/08/12 06:58:15;;;;;;;6.00;5.47;;;23.40;99.90;;;;;;5093958;28;20221;-80
2022/08/12 07:00:45;;;;;;;6.55;5.95;;;23.60;99.90;;;;;;5102067;28;20192;-79
2022/08/12 07:03:20;;;;;;;6.97;6.28;;;23.80;97.20;;;;;;5114047;28;20212;-79
2022/08/12 07:05:47;;;;;;;7.82;6.13;;;24.00;98.50;;;;;;5113406;28;20257;-78
2022/08/12 07:08:15;;;;;;;7.38;6.20;;;24.10;62.90;;;;;;5107774;28;20227;-79
2022/08/12 07:10:46;;;;;;;7.10;6.38;;;24.30;27.60;;;;;;5094308;28;20196;-78
2022/08/12 07:13:14;;;;;;;6.07;5.53;;;24.40;1.20;;;;;;5094946;28;20204;-78
2022/08/12 07:15:42;;;;;;;8.25;6.63;;;24.60;1.00;;;;;;5094763;28;20219;-78
2022/08/12 07:18:14;;;;;;;5.32;4.82;;;24.70;1.00;;;;;;5093594;28;20227;-79
2022/08/12 07:20:42;;;;;;;5.40;4.90;;;24.90;1.00;;;;;;5093807;28;20209;-77
2022/08/12 07:23:10;;;;;;;5.60;5.10;;;25.20;1.00;;;;;;5093054;28;20215;-78
2022/08/12 07:25:38;;;;;;;6.63;5.72;;;25.50;1.00;;;;;;5093721;28;20203;-80
2022/08/12 07:28:07;;;;;;;6.32;5.47;;;25.70;1.00;;;;;;5093391;28;20215;-80
2022/08/12 07:30:40;;;;;;;7.60;5.97;;;26.00;1.00;;;;;;5092496;28;20236;-79
2022/08/12 07:33:08;;;;;;;6.30;4.90;;;26.30;99.90;;;;;;5093768;28;20284;-80
2022/08/12 07:35:44;;;;;;;6.57;5.70;;;26.50;41.20;;;;;;5093559;28;20600;-80
2022/08/12 07:38:23;;;;;;;7.72;5.68;;;26.60;1.00;;;;;;5092990;28;20212;-79
2022/08/12 07:40:50;;;;;;;5.72;4.75;;;26.80;99.90;;;;;;5093625;28;20220;-80
2022/08/12 07:43:17;;;;;;;6.00;5.32;;;27.00;1.00;;;;;;5093533;28;20196;-80
2022/08/12 07:45:45;;;;;;;5.22;4.72;;;27.30;1.00;;;;;;5092735;28;20291;-79
2022/08/12 07:48:13;;;;;;;4.45;4.05;;;27.30;1.00;;;;;;5093066;28;20246;-81
2022/08/12 07:50:40;;;;;;;8.48;4.53;;;27.40;1.00;;;;;;5093675;28;20221;-80
2022/08/12 07:53:07;;;;;;;5.38;4.32;;;27.70;1.00;;;;;;5092354;28;20638;-81
2022/08/12 07:55:35;;;;;;;6.65;4.80;;;27.90;99.90;;;;;;5093282;28;20200;-79
2022/08/12 07:58:02;;;;;;;5.03;3.55;;;28.10;1.00;;;;;;5092534;28;20322;-79
2022/08/12 08:00:33;;;;;;;6.72;3.97;;;28.30;1.00;;;;;;5092925;28;20199;-80
2022/08/12 08:03:01;;;;;;;6.22;4.38;;;28.40;1.00;;;;;;5093266;28;20196;-81
2022/08/12 08:05:31;;;;;;;4.72;4.18;;;28.60;99.90;;;;;;5092239;28;20246;-80
2022/08/12 08:08:01;;;;;;;5.00;3.97;;;28.90;1.00;;;;;;5093271;28;20579;-80
2022/08/12 08:10:30;;;;;;;5.90;4.28;;;28.90;1.00;;;;;;5093257;28;20200;-80
2022/08/12 08:12:57;;;;;;;5.45;3.72;;;29.10;99.90;;;;;;5091908;28;20544;-81
2022/08/12 08:15:26;;;;;;;7.38;3.60;;;29.20;4.20;;;;;;5092799;28;20212;-79
2022/08/12 08:17:56;;;;;;;3.15;2.80;;;29.20;1.00;;;;;;5092930;28;20197;-81
2022/08/12 08:20:28;;;;;;;4.05;3.65;;;29.40;1.00;;;;;;5092847;28;20196;-82
2022/08/12 08:22:56;;;;;;;5.60;3.80;;;29.30;1.00;;;;;;5092645;28;20181;-82
2022/08/12 08:25:30;;;;;;;4.82;3.42;;;29.30;1.00;;;;;;5092585;28;20201;-80
2022/08/12 08:28:01;;;;;;;4.00;3.47;;;29.40;1.00;;;;;;5091999;28;20246;-84
2022/08/12 08:30:29;;;;;;;3.45;3.00;;;29.40;1.00;;;;;;5092108;28;20331;-81
2022/08/12 08:32:56;;;;;;;5.10;3.63;;;29.40;1.00;;;;;;5098388;28;20591;-81
2022/08/12 08:35:26;;;;;;;4.30;2.75;;;29.70;1.00;;;;;;5104525;28;20467;-84
2022/08/12 08:37:54;;;;;;;6.00;3.80;;;30.10;1.00;;;;;;5092333;28;20221;-81
2022/08/12 08:43:06;;;;;;;3.15;2.70;;;30.30;1.00;;;;;;5092045;28;20188;-81
2022/08/12 08:45:33;;;;;;;4.80;3.00;;;30.50;1.00;;;;;;5100475;28;20234;-82
2022/08/12 08:48:01;;;;;;;3.60;3.00;;;30.80;1.00;;;;;;5109232;28;20474;-80
2022/08/12 08:50:29;;;;;;;4.55;2.75;;;30.70;1.00;;;;;;5109370;28;20242;-82
2022/08/12 08:52:56;;;;;;;3.28;2.00;;;30.90;1.00;;;;;;5107529;28;20214;-81
2022/08/12 08:55:24;;;;;;;6.32;2.42;;;30.90;1.00;;;;;;5109772;28;20222;-82
2022/08/12 08:57:54;;;;;;;3.55;2.20;;;31.10;99.90;;;;;;5109541;28;20212;-81
2022/08/12 09:00:21;;;;;;;4.53;2.50;;;31.10;99.90;;;;;;5110164;28;20263;-82
2022/08/12 09:02:49;;;;;;;2.97;2.33;;;31.10;99.90;;;;;;5108616;28;20230;-81
2022/08/12 09:05:17;;;;;;;3.72;2.60;;;31.20;99.90;;;;;;5109896;28;20256;-81
2022/08/12 09:07:47;;;;;;;2.90;2.33;;;31.30;99.90;;;;;;5106701;28;20203;-82
2022/08/12 09:10:18;;;;;;;2.15;1.95;;;31.30;99.90;;;;;;5109396;28;20230;-82
2022/08/12 09:15:29;;;;;;;3.20;2.28;;;31.50;99.90;;;;;;5108094;28;20206;-80
2022/08/12 09:17:58;;;;;;;2.85;2.35;;;31.50;99.90;;;;;;5106376;28;20211;-80
2022/08/12 09:20:27;;;;;;;3.17;2.33;;;31.60;99.90;;;;;;5106377;28;20528;-81
2022/08/12 09:22:56;;;;;;;2.85;2.42;;;31.70;99.90;;;;;;5106371;28;20254;-79
2022/08/12 09:25:24;;;;;;;6.35;2.90;;;31.50;99.90;;;;;;5111236;28;20179;-81
2022/08/12 09:27:52;;;;;;;3.03;2.28;;;31.60;99.90;;;;;;5111684;28;20588;-82
2022/08/12 09:30:19;;;;;;;2.85;2.42;;;31.50;99.90;;;;;;5102362;28;20243;-79
2022/08/12 09:32:49;;;;;;;3.10;2.10;;;31.50;99.90;;;;;;5091613;28;20196;-81
2022/08/12 09:35:22;;;;;;;3.97;2.42;;;31.60;99.90;;;;;;5091675;28;20622;-81
2022/08/12 09:37:50;;;;;;;2.65;2.20;;;31.40;99.90;;;;;;5089903;28;20247;-81
2022/08/12 09:40:20;;;;;;;5.32;2.60;;;31.50;99.90;;;;;;5090962;28;20228;-80
2022/08/12 09:45:32;;;;;;;2.28;2.08;;;31.80;99.90;;;;;;5091168;28;20200;-81
2022/08/12 09:48:02;;;;;;;2.47;2.17;;;31.90;99.90;;;;;;5091719;28;20208;-80
2022/08/12 09:50:29;;;;;;;3.03;2.13;;;32.00;99.90;;;;;;5091366;28;20274;-80
2022/08/12 09:53:10;;;;;;;5.03;2.30;;;31.80;99.90;;;;;;5095501;28;20499;-79
2022/08/12 09:55:42;;;;;;;3.97;2.30;;;31.80;99.90;;;;;;5095471;28;20197;-78
2022/08/12 09:58:09;;;;;;;6.70;1.95;;;31.90;99.90;;;;;;5094327;28;20596;-79
2022/08/12 10:00:36;;;;;;;2.30;2.10;;;31.80;99.90;;;;;;5095604;28;20199;-80
2022/08/12 10:03:05;;;;;;;2.42;2.22;;;31.90;99.90;;;;;;5094956;28;20228;-79
2022/08/12 10:05:35;;;;;;;4.22;2.55;;;31.90;99.90;;;;;;5094713;28;20226;-80
2022/08/12 10:08:03;;;;;;;3.40;2.33;;;32.00;99.90;;;;;;5095667;28;20220;-79
2022/08/12 10:10:30;;;;;;;2.53;2.33;;;32.10;99.90;;;;;;5094858;28;20197;-79
2022/08/12 10:15:46;;;;;;;7.07;2.55;;;32.10;99.90;;;;;;5094723;28;20741;-79
2022/08/12 10:18:13;;;;;;;3.00;2.70;;;32.30;99.90;;;;;;5095232;28;20261;-80
2022/08/12 10:20:40;;;;;;;3.03;2.30;;;32.40;99.90;;;;;;5094091;28;20206;-82
2022/08/12 10:23:07;;;;;;;4.22;2.75;;;32.60;99.90;;;;;;5094412;28;20204;-81
2022/08/12 10:31:05;;;;;;;4.25;2.25;;;32.60;99.90;;;;;;5094825;28;20301;-79
2022/08/12 10:33:33;;;;;;;4.35;2.38;;;32.70;99.90;;;;;;5106576;28;20199;-81
2022/08/12 10:36:01;;;;;;;2.95;2.38;;;32.90;99.90;;;;;;5111529;28;20283;-80
2022/08/12 10:38:28;;;;;;;5.60;2.35;;;33.10;99.90;;;;;;5114433;28;20560;-80
2022/08/12 10:43:41;;;;;;;4.65;2.50;;;33.40;99.90;;;;;;5111372;28;20638;-81
2022/08/12 10:46:08;;;;;;;3.13;2.40;;;33.50;99.90;;;;;;5099384;28;20296;-79
2022/08/12 10:48:35;;;;;;;7.43;2.50;;;33.40;99.90;;;;;;5093784;28;20244;-81
2022/08/12 10:51:03;;;;;;;3.20;2.47;;;33.50;99.90;;;;;;5093993;28;20275;-80
2022/08/12 10:53:32;;;;;;;3.83;2.67;;;33.40;99.90;;;;;;5094074;28;20604;-79
2022/08/12 10:55:59;;;;;;;4.60;2.95;;;33.50;99.90;;;;;;5093454;28;20820;-80
2022/08/12 10:58:27;;;;;;;4.85;2.65;;;33.30;99.90;;;;;;5093939;28;20193;-79
2022/08/12 11:00:55;;;;;;;2.30;2.10;;;33.40;99.90;;;;;;5093953;28;20203;-80
2022/08/12 11:03:22;;;;;;;4.43;2.60;;;33.40;99.90;;;;;;5093728;28;20189;-80
2022/08/12 11:05:54;;;;;;;3.08;2.28;;;33.80;99.90;;;;;;5094022;28;20215;-81
2022/08/12 11:08:23;;;;;;;5.65;2.58;;;33.90;99.90;;;;;;5093570;28;20542;-79
2022/08/12 11:10:50;;;;;;;5.88;2.30;;;34.20;99.90;;;;;;5093957;28;20200;-79
2022/08/12 11:13:19;;;;;;;3.95;2.08;;;34.00;99.90;;;;;;5093638;28;20205;-79
2022/08/12 11:15:46;;;;;;;6.07;3.03;;;33.90;99.90;;;;;;5093618;28;20283;-79
2022/08/12 11:18:14;;;;;;;3.92;2.28;;;33.60;99.90;;;;;;5094182;28;20209;-79
2022/08/12 11:20:41;;;;;;;2.83;2.40;;;33.60;99.90;;;;;;5093724;28;20611;-79
2022/08/12 11:23:08;;;;;;;3.70;2.13;;;33.70;99.90;;;;;;5092720;28;20655;-78
2022/08/12 11:25:34;;;;;;;2.40;2.15;;;33.90;99.90;;;;;;5094147;28;20197;-79
2022/08/12 11:28:01;;;;;;;4.03;2.38;;;34.10;99.90;;;;;;5092222;28;20204;-78
2022/08/12 11:30:28;;;;;;;3.53;2.47;;;34.20;99.90;;;;;;5112637;28;20310;-80
2022/08/12 11:32:55;;;;;;;6.35;2.70;;;34.30;99.90;;;;;;5114467;28;20291;-79
2022/08/12 11:35:23;;;;;;;2.88;2.40;;;34.40;99.90;;;;;;5093697;28;20204;-80
2022/08/12 11:37:50;;;;;;;2.60;2.25;;;34.30;99.90;;;;;;5099975;28;20223;-79
2022/08/12 11:40:17;;;;;;;3.20;2.50;;;34.20;99.90;;;;;;5098499;28;20232;-78
2022/08/12 11:42:44;;;;;;;3.58;2.30;;;34.30;99.90;;;;;;5093305;28;20616;-81
2022/08/12 11:45:11;;;;;;;3.42;2.10;;;34.20;99.90;;;;;;5091614;28;20200;-80
2022/08/12 11:47:39;;;;;;;4.75;2.35;;;34.20;99.90;;;;;;5109700;28;20200;-81
2022/08/12 11:50:06;;;;;;;4.75;2.22;;;34.30;99.90;;;;;;5094591;28;20637;-78
2022/08/12 11:52:35;;;;;;;4.28;2.15;;;34.40;99.90;;;;;;5112872;28;20221;-79
2022/08/12 11:55:02;;;;;;;2.75;2.33;;;34.30;99.90;;;;;;5112648;28;20202;-80
2022/08/12 11:57:29;;;;;;;5.60;2.30;;;34.20;99.90;;;;;;5111052;28;20274;-79
2022/08/12 11:59:56;;;;;;;4.53;2.20;;;34.30;99.90;;;;;;5106721;28;20219;-79
2022/08/12 12:02:23;;;;;;;7.35;2.33;;;34.40;99.90;;;;;;5113391;28;20204;-81
2022/08/12 12:04:50;;;;;;;6.03;2.67;;;34.60;99.90;;;;;;5099418;28;20295;-80
2022/08/12 12:07:17;;;;;;;3.60;2.15;;;34.60;99.90;;;;;;5109767;28;20200;-80
2022/08/12 12:09:45;;;;;;;3.65;2.20;;;34.50;99.90;;;;;;5105945;28;20203;-80
2022/08/12 12:12:12;;;;;;;4.57;2.10;;;34.50;99.90;;;;;;5111708;28;20235;-80
2022/08/12 12:14:39;;;;;;;2.97;2.00;;;34.60;99.90;;;;;;5103734;28;20200;-81
2022/08/12 12:17:06;;;;;;;5.13;1.77;;;34.70;99.90;;;;;;5092513;28;20188;-81
2022/08/12 12:19:33;;;;;;;3.17;1.90;;;34.70;99.90;;;;;;5092210;28;20286;-82
2022/08/12 12:22:00;;;;;;;2.28;1.90;;;34.80;99.90;;;;;;5092609;28;20288;-82
2022/08/12 12:24:26;;;;;;;2.88;2.20;;;34.80;99.90;;;;;;5093130;28;20199;-82
2022/08/12 12:26:55;;;;;;;4.35;2.20;;;34.80;99.90;;;;;;5091998;28;20220;-82
2022/08/12 12:29:22;;;;;;;5.38;1.98;;;34.80;99.90;;;;;;5092232;28;20524;-83
2022/08/12 12:31:48;;;;;;;6.40;2.00;;;34.90;99.90;;;;;;5092618;28;20208;-80
2022/08/12 12:34:15;;;;;;;3.03;1.90;;;34.80;99.90;;;;;;5091980;28;20584;-81
2022/08/12 12:36:46;;;;;;;5.95;2.15;;;34.90;99.90;;;;;;5093291;28;20311;-84
2022/08/12 12:39:13;;;;;;;3.28;2.40;;;34.80;99.90;;;;;;5105349;28;20240;-82
2022/08/12 12:41:40;;;;;;;4.30;2.08;;;35.00;99.90;;;;;;5109375;28;20275;-82
2022/08/12 12:46:33;;;;;;;2.75;1.85;;;35.10;99.90;;;;;;5116301;22;20231;-83
2022/08/12 12:49:02;;;;;;;3.92;2.40;;;35.10;99.90;;;;;;5112803;28;20200;-82
2022/08/12 12:51:29;;;;;;;5.10;2.10;;;35.10;99.90;;;;;;5112981;28;20203;-82
2022/08/12 12:53:56;;;;;;;4.45;2.17;;;35.00;99.90;;;;;;5112070;28;20188;-80
2022/08/12 12:56:24;;;;;;;4.07;2.13;;;34.70;99.90;;;;;;5111686;28;20200;-79
2022/08/12 12:58:52;;;;;;;3.83;2.15;;;34.80;99.90;;;;;;5112364;28;20192;-81
2022/08/12 13:01:24;;;;;;;4.80;2.00;;;34.60;99.90;;;;;;5111311;28;20230;-80
2022/08/12 13:03:53;;;;;;;4.60;2.40;;;34.70;99.90;;;;;;5112617;28;20200;-80
2022/08/12 13:06:24;;;;;;;5.55;1.80;;;34.70;99.90;;;;;;5091120;28;20303;-79
2022/08/12 13:08:51;;;;;;;4.60;2.08;;;34.60;99.90;;;;;;5091892;28;20223;-81
2022/08/12 13:11:20;;;;;;;3.65;2.20;;;34.70;99.90;;;;;;5092883;28;20205;-81
2022/08/12 13:13:48;;;;;;;7.00;2.88;;;34.80;99.90;;;;;;5093298;28;20571;-81
2022/08/12 13:16:16;;;;;;;4.97;2.30;;;34.70;99.90;;;;;;5092114;28;20200;-78
2022/08/12 13:18:43;;;;;;;1.92;1.80;;;34.70;99.90;;;;;;5092886;28;20627;-80
2022/08/12 13:21:14;;;;;;;5.30;1.98;;;34.80;99.90;;;;;;5114087;28;20226;-78
2022/08/12 13:23:45;;;;;;;4.43;2.60;;;34.70;99.90;;;;;;5113090;28;20187;-80
2022/08/12 13:26:12;;;;;;;3.70;1.95;;;34.60;99.90;;;;;;5106908;28;20212;-81
2022/08/12 13:28:41;;;;;;;5.70;2.10;;;34.60;99.90;;;;;;5096518;28;20197;-81
2022/08/12 13:31:08;;;;;;;4.88;2.22;;;34.40;99.90;;;;;;5107410;28;20197;-78
2022/08/12 13:33:35;;;;;;;6.72;2.10;;;34.30;99.90;;;;;;5109156;28;20196;-80
2022/08/12 13:36:02;;;;;;;3.22;2.00;;;34.30;99.90;;;;;;5122286;28;20225;-81
2022/08/12 13:38:38;;;;;;;6.43;2.22;;;34.40;99.90;;;;;;5110476;28;20193;-79
2022/08/12 13:41:06;;;;;;;3.17;2.13;;;34.50;99.90;;;;;;5105617;28;20235;-80
2022/08/12 13:43:33;;;;;;;3.53;2.20;;;34.50;99.90;;;;;;5101579;28;20196;-80
2022/08/12 13:46:00;;;;;;;6.75;2.45;;;34.60;99.90;;;;;;5092039;28;20229;-80
2022/08/12 13:48:28;;;;;;;4.38;2.20;;;34.70;99.90;;;;;;5091903;28;20247;-80
2022/08/12 13:50:56;;;;;;;4.80;2.35;;;34.70;99.90;;;;;;5091293;28;20197;-81
2022/08/12 13:53:22;;;;;;;2.58;2.10;;;34.60;99.90;;;;;;5078900;28;20201;-79
2022/08/12 13:55:51;;;;;;;3.03;1.88;;;34.60;99.90;;;;;;5071939;28;20659;-79
2022/08/12 13:58:21;;;;;;;2.10;1.88;;;34.60;99.90;;;;;;5090769;28;20687;-79
2022/08/12 14:00:50;;;;;;;4.13;2.00;;;34.60;99.90;;;;;;5091553;28;20636;-79
2022/08/12 14:03:18;;;;;;;3.70;2.20;;;34.50;99.90;;;;;;5091944;28;20250;-79
2022/08/12 14:05:45;;;;;;;3.08;2.22;;;34.60;99.90;;;;;;5089960;28;20212;-79
2022/08/12 14:08:14;;;;;;;4.57;1.75;;;34.60;99.90;;;;;;5090405;28;20207;-80
2022/08/12 14:10:45;;;;;;;2.92;2.10;;;34.50;99.90;;;;;;5090527;28;20199;-79
2022/08/12 14:13:15;;;;;;;2.80;2.05;;;34.40;99.90;;;;;;5091576;28;20201;-80
2022/08/12 14:15:46;;;;;;;3.60;1.92;;;34.20;99.90;;;;;;5091333;28;20592;-80
2022/08/12 14:18:16;;;;;;;3.15;1.80;;;34.10;99.90;;;;;;5090976;28;20609;-81
2022/08/12 14:20:44;;;;;;;3.03;2.30;;;34.10;99.90;;;;;;5080279;28;20236;-82
2022/08/12 14:23:12;;;;;;;3.45;1.80;;;33.90;99.90;;;;;;5088671;28;20284;-79
2022/08/12 14:25:39;;;;;;;2.22;1.80;;;33.90;99.90;;;;;;5090052;28;20201;-79
2022/08/12 14:28:11;;;;;;;4.75;1.80;;;33.80;99.90;;;;;;5091321;28;20219;-80
2022/08/12 14:30:50;;;;;;;2.53;1.98;;;33.80;99.90;;;;;;5090902;28;20430;-79
2022/08/12 14:33:17;;;;;;;3.80;2.00;;;33.90;99.90;;;;;;5090677;28;20202;-79
2022/08/12 14:35:44;;;;;;;3.63;1.85;;;33.80;99.90;;;;;;5090406;28;20292;-78
2022/08/12 14:38:16;;;;;;;3.72;1.90;;;33.80;99.90;;;;;;5092762;28;20523;-79